createdAt,value
2022-08-29T00:00:42.664Z,16.98
2022-08-29T00:03:12.943Z,16.98
2022-08-29T00:05:42.023Z,16.98
2022-08-29T00:08:13.242Z,16.99
2022-08-29T00:10:43.236Z,16.98
2022-08-29T00:13:14.146Z,16.98
2022-08-29T00:15:45.180Z,16.99
2022-08-29T00:18:16.132Z,16.95
2022-08-29T00:20:45.427Z,16.93
2022-08-29T00:23:13.846Z,16.92
2022-08-29T00:25:43.054Z,16.91
2022-08-29T00:28:12.119Z,16.90
2022-08-29T00:30:41.207Z,16.88
2022-08-29T00:33:10.054Z,16.89
2022-08-29T00:35:41.532Z,16.91
2022-08-29T00:38:13.164Z,16.91
2022-08-29T00:40:51.850Z,16.92
2022-08-29T00:43:25.091Z,16.92
2022-08-29T00:46:19.885Z,16.91
2022-08-29T00:48:56.005Z,16.89
2022-08-29T00:51:25.233Z,16.88
2022-08-29T00:53:59.833Z,16.87
2022-08-29T00:56:29.395Z,16.86
2022-08-29T00:59:07.298Z,16.86
2022-08-29T01:01:35.877Z,16.85
2022-08-29T01:04:15.733Z,16.83
2022-08-29T01:06:51.351Z,16.81
2022-08-29T01:09:21.047Z,16.78
2022-08-29T01:12:08.531Z,16.75
2022-08-29T01:14:38.744Z,16.75
2022-08-29T01:17:10.105Z,16.74
2022-08-29T01:19:49.801Z,16.72
2022-08-29T01:22:38.798Z,16.72
2022-08-29T01:25:13.135Z,16.71
2022-08-29T01:27:47.221Z,16.68
2022-08-29T01:30:17.833Z,16.68
2022-08-29T01:32:46.595Z,16.68
2022-08-29T01:35:14.968Z,16.65
2022-08-29T01:37:44.672Z,16.66
2022-08-29T01:40:14.338Z,16.66
2022-08-29T01:42:44.385Z,16.66
2022-08-29T01:45:13.168Z,16.66
2022-08-29T01:47:41.919Z,16.66
2022-08-29T01:50:14.444Z,16.68
2022-08-29T01:52:43.042Z,16.69
2022-08-29T01:55:12.267Z,16.70
2022-08-29T01:57:40.965Z,16.68
2022-08-29T02:00:11.733Z,16.67
2022-08-29T02:02:41.287Z,16.65
2022-08-29T02:05:09.790Z,16.64
2022-08-29T02:07:38.428Z,16.65
2022-08-29T02:10:08.549Z,16.67
2022-08-29T02:12:36.913Z,16.68
2022-08-29T02:15:06.266Z,16.67
2022-08-29T02:17:34.825Z,16.68
2022-08-29T02:20:08.078Z,16.67
2022-08-29T02:22:39.026Z,16.70
2022-08-29T02:25:32.061Z,16.70
2022-08-29T02:28:00.386Z,16.70
2022-08-29T02:30:28.800Z,16.69
2022-08-29T02:32:58.027Z,16.69
2022-08-29T02:35:26.502Z,16.71
2022-08-29T02:37:57.316Z,16.71
2022-08-29T02:40:31.563Z,16.69
2022-08-29T02:43:01.694Z,16.70
2022-08-29T02:45:33.717Z,16.70
2022-08-29T02:48:02.504Z,16.68
2022-08-29T02:50:32.215Z,16.65
2022-08-29T02:53:01.243Z,16.65
2022-08-29T02:55:32.367Z,16.67
2022-08-29T02:58:00.734Z,16.67
2022-08-29T03:00:29.414Z,16.69
2022-08-29T03:03:00.088Z,16.70
2022-08-29T03:05:30.107Z,16.70
2022-08-29T03:07:58.975Z,16.70
2022-08-29T03:10:27.881Z,16.72
2022-08-29T03:12:56.495Z,16.73
2022-08-29T03:15:26.319Z,16.73
2022-08-29T03:17:55.378Z,16.73
2022-08-29T03:20:24.627Z,16.74
2022-08-29T03:22:54.349Z,16.75
2022-08-29T03:25:24.422Z,16.75
2022-08-29T03:27:53.070Z,16.73
2022-08-29T03:30:24.091Z,16.74
2022-08-29T03:32:53.981Z,16.75
2022-08-29T03:35:22.744Z,16.76
2022-08-29T03:37:55.311Z,16.76
2022-08-29T03:40:25.595Z,16.76
2022-08-29T03:42:55.367Z,16.75
2022-08-29T03:45:25.701Z,16.74
2022-08-29T03:47:57.211Z,16.73
2022-08-29T03:50:25.573Z,16.73
2022-08-29T03:52:54.073Z,16.72
2022-08-29T03:55:22.610Z,16.72
2022-08-29T03:57:51.307Z,16.72
2022-08-29T04:00:20.155Z,16.72
2022-08-29T04:02:49.415Z,16.71
2022-08-29T04:05:18.171Z,16.72
2022-08-29T04:07:48.111Z,16.74
2022-08-29T04:10:24.508Z,16.73
2022-08-29T04:12:55.046Z,16.72
2022-08-29T04:15:26.579Z,16.72
2022-08-29T04:18:00.153Z,16.72
2022-08-29T04:20:37.802Z,16.73
2022-08-29T04:23:06.798Z,16.73
2022-08-29T04:25:38.110Z,16.75
2022-08-29T04:28:10.166Z,16.76
2022-08-29T04:30:40.220Z,16.76
2022-08-29T04:33:12.828Z,16.77
2022-08-29T04:35:52.169Z,16.77
2022-08-29T04:38:21.591Z,16.77
2022-08-29T04:40:50.070Z,16.78
2022-08-29T04:43:18.377Z,16.79
2022-08-29T04:45:54.542Z,16.80
2022-08-29T04:48:23.339Z,16.80
2022-08-29T04:50:59.438Z,16.79
2022-08-29T04:53:28.854Z,16.80
2022-08-29T04:56:11.988Z,16.79
2022-08-29T04:58:44.144Z,16.80
2022-08-29T05:01:14.525Z,16.80
2022-08-29T05:03:44.258Z,16.81
2022-08-29T05:06:14.720Z,16.82
2022-08-29T05:08:44.153Z,16.83
2022-08-29T05:11:22.600Z,16.87
2022-08-29T05:13:54.295Z,16.89
2022-08-29T05:16:23.693Z,16.92
2022-08-29T05:18:52.416Z,16.93
2022-08-29T05:21:34.008Z,16.95
2022-08-29T05:24:07.203Z,16.98
2022-08-29T05:26:39.383Z,17.02
2022-08-29T05:29:09.984Z,17.04
2022-08-29T05:31:39.531Z,17.07
2022-08-29T05:34:18.392Z,17.10
2022-08-29T05:36:57.881Z,17.13
2022-08-29T05:39:26.355Z,17.15
2022-08-29T05:41:55.846Z,17.20
2022-08-29T05:44:24.846Z,17.23
2022-08-29T05:46:53.319Z,17.26
2022-08-29T05:49:22.261Z,17.30
2022-08-29T05:51:53.490Z,17.33
2022-08-29T05:54:23.651Z,17.36
2022-08-29T05:56:53.186Z,17.38
2022-08-29T05:59:21.968Z,17.39
2022-08-29T06:01:50.302Z,17.41
2022-08-29T06:04:24.420Z,17.44
2022-08-29T06:06:52.819Z,17.46
2022-08-29T06:09:21.274Z,17.49
2022-08-29T06:11:51.522Z,17.51
2022-08-29T06:14:20.910Z,17.53
2022-08-29T06:16:49.821Z,17.54
2022-08-29T06:19:21.850Z,17.57
2022-08-29T06:21:50.779Z,17.59
2022-08-29T06:24:19.161Z,17.61
2022-08-29T06:26:47.501Z,17.62
2022-08-29T06:29:16.765Z,17.65
2022-08-29T06:31:45.215Z,17.66
2022-08-29T06:34:13.554Z,17.70
2022-08-29T06:36:42.254Z,17.74
2022-08-29T06:39:11.865Z,17.76
2022-08-29T06:41:41.549Z,17.79
2022-08-29T06:44:10.470Z,17.82
2022-08-29T06:46:46.174Z,17.85
2022-08-29T06:49:16.326Z,17.86
2022-08-29T06:51:49.162Z,17.88
2022-08-29T06:54:20.191Z,17.91
2022-08-29T06:56:49.746Z,17.94
2022-08-29T06:59:19.661Z,17.98
2022-08-29T07:01:48.329Z,18.02
2022-08-29T07:04:16.861Z,18.06
2022-08-29T07:06:50.071Z,18.12
2022-08-29T07:09:21.626Z,18.20
2022-08-29T07:11:50.074Z,18.27
2022-08-29T07:14:18.714Z,18.37
2022-08-29T07:16:49.528Z,18.47
2022-08-29T07:19:18.097Z,18.59
2022-08-29T07:21:46.491Z,18.70
2022-08-29T07:24:14.927Z,18.79
2022-08-29T07:26:44.817Z,18.87
2022-08-29T07:29:17.573Z,18.88
2022-08-29T07:31:47.513Z,18.91
2022-08-29T07:34:20.740Z,18.98
2022-08-29T07:36:49.441Z,19.06
2022-08-29T07:39:23.129Z,19.16
2022-08-29T07:41:51.423Z,19.28
2022-08-29T07:44:19.904Z,19.34
2022-08-29T07:46:48.487Z,19.34
2022-08-29T07:49:17.098Z,19.34
2022-08-29T07:51:48.035Z,19.34
2022-08-29T07:54:18.792Z,19.35
2022-08-29T07:56:49.553Z,19.33
2022-08-29T07:59:20.200Z,19.33
2022-08-29T08:01:49.336Z,19.37
2022-08-29T08:04:18.370Z,19.37
2022-08-29T08:06:48.007Z,19.36
2022-08-29T08:09:16.481Z,19.40
2022-08-29T08:11:44.990Z,19.41
2022-08-29T08:14:13.834Z,19.45
2022-08-29T08:16:44.104Z,19.52
2022-08-29T08:19:15.700Z,19.58
2022-08-29T08:21:49.566Z,19.58
2022-08-29T08:24:20.229Z,19.57
2022-08-29T08:26:49.304Z,19.55
2022-08-29T08:29:17.887Z,19.58
2022-08-29T08:31:49.307Z,19.67
2022-08-29T08:34:20.600Z,19.69
2022-08-29T08:36:50.414Z,19.73
2022-08-29T08:39:19.733Z,19.74
2022-08-29T08:42:05.602Z,19.80
2022-08-29T08:45:16.115Z,19.82
2022-08-29T08:48:02.946Z,19.88
2022-08-29T08:50:44.650Z,19.95
2022-08-29T08:53:17.114Z,19.96
2022-08-29T08:55:57.217Z,19.95
2022-08-29T08:58:35.553Z,19.90
2022-08-29T09:01:39.691Z,19.83
2022-08-29T09:04:27.184Z,19.81
2022-08-29T09:07:01.830Z,19.76
2022-08-29T09:09:45.361Z,19.74
2022-08-29T09:12:30.273Z,19.72
2022-08-29T09:15:10.471Z,19.73
2022-08-29T09:17:53.205Z,19.75
2022-08-29T09:20:28.810Z,19.76
2022-08-29T09:23:23.214Z,19.80
2022-08-29T09:25:52.192Z,19.83
2022-08-29T09:28:21.100Z,19.89
2022-08-29T09:31:27.192Z,19.97
2022-08-29T09:33:57.894Z,20.01
2022-08-29T09:36:42.030Z,20.03
2022-08-29T09:39:29.828Z,20.05
2022-08-29T09:42:11.910Z,20.05
2022-08-29T09:44:51.048Z,20.04
2022-08-29T09:47:25.195Z,20.08
2022-08-29T09:50:24.775Z,20.11
2022-08-29T09:52:59.583Z,20.15
2022-08-29T09:55:35.675Z,20.24
2022-08-29T09:58:10.781Z,20.32
2022-08-29T10:00:44.166Z,20.32
2022-08-29T10:03:22.834Z,20.29
2022-08-29T10:06:12.901Z,20.30
2022-08-29T10:08:54.746Z,20.29
2022-08-29T10:11:55.717Z,20.39
2022-08-29T10:14:50.420Z,20.47
2022-08-29T10:17:45.037Z,20.53
2022-08-29T10:20:13.617Z,20.62
2022-08-29T10:23:06.112Z,20.65
2022-08-29T10:25:41.381Z,20.59
2022-08-29T10:28:20.324Z,20.55
2022-08-29T10:31:13.004Z,20.45
2022-08-29T10:33:44.429Z,20.43
2022-08-29T10:36:18.109Z,20.44
2022-08-29T10:39:01.904Z,20.43
2022-08-29T10:41:50.357Z,20.40
2022-08-29T10:44:56.163Z,20.35
2022-08-29T10:47:32.836Z,20.37
2022-08-29T10:50:45.268Z,20.35
2022-08-29T10:53:39.074Z,20.35
2022-08-29T10:56:14.291Z,20.33
2022-08-29T10:59:05.504Z,20.27
2022-08-29T11:01:52.647Z,20.28
2022-08-29T11:04:30.044Z,20.27
2022-08-29T11:07:18.751Z,20.29
2022-08-29T11:09:52.302Z,20.32
2022-08-29T11:12:41.849Z,20.41
2022-08-29T11:15:36.311Z,20.53
2022-08-29T11:18:22.286Z,20.63
2022-08-29T11:20:57.855Z,20.70
2022-08-29T11:23:47.954Z,20.78
2022-08-29T11:26:26.709Z,20.82
2022-08-29T11:28:57.248Z,20.86
2022-08-29T11:31:45.505Z,20.91
2022-08-29T11:34:31.778Z,20.95
2022-08-29T11:37:31.391Z,20.94
2022-08-29T11:40:47.343Z,20.94
2022-08-29T11:43:15.541Z,20.99
2022-08-29T11:45:53.381Z,21.08
2022-08-29T11:48:21.767Z,21.16
2022-08-29T11:50:50.268Z,21.21
2022-08-29T11:53:20.777Z,21.25
2022-08-29T11:56:14.158Z,21.31
2022-08-29T11:58:46.741Z,21.31
2022-08-29T12:01:24.537Z,21.37
2022-08-29T12:03:57.327Z,21.49
2022-08-29T12:06:31.895Z,21.61
2022-08-29T12:09:13.939Z,21.69
2022-08-29T12:12:20.215Z,21.76
2022-08-29T12:14:53.179Z,21.70
2022-08-29T12:17:45.128Z,21.61
2022-08-29T12:20:30.013Z,21.49
2022-08-29T12:23:01.522Z,21.35
2022-08-29T12:26:03.701Z,21.30
2022-08-29T12:28:47.972Z,21.27
2022-08-29T12:32:02.094Z,21.28
2022-08-29T12:35:15.158Z,21.29
2022-08-29T12:38:19.090Z,21.27
2022-08-29T12:41:08.191Z,21.34
2022-08-29T12:43:42.974Z,21.34
2022-08-29T12:46:22.919Z,21.39
2022-08-29T12:48:58.536Z,21.43
2022-08-29T12:51:38.167Z,21.35
2022-08-29T12:54:08.056Z,21.34
2022-08-29T12:56:42.929Z,21.35
2022-08-29T12:59:19.380Z,21.38
2022-08-29T13:01:55.885Z,21.46
2022-08-29T13:04:32.065Z,21.47
2022-08-29T13:07:15.663Z,21.48
2022-08-29T13:09:53.539Z,21.41
2022-08-29T13:12:25.075Z,21.52
2022-08-29T13:14:53.477Z,21.61
2022-08-29T13:17:48.868Z,21.69
2022-08-29T13:20:40.894Z,21.83
2022-08-29T13:23:25.138Z,21.85
2022-08-29T13:26:00.876Z,21.91
2022-08-29T13:28:47.411Z,22.00
2022-08-29T13:31:15.942Z,21.97
2022-08-29T13:33:48.638Z,21.97
2022-08-29T13:36:51.058Z,21.90
2022-08-29T13:39:28.084Z,21.86
2022-08-29T13:42:02.490Z,21.82
2022-08-29T13:44:38.880Z,21.81
2022-08-29T13:47:26.456Z,21.80
2022-08-29T13:50:01.323Z,21.79
2022-08-29T13:52:31.947Z,21.80
2022-08-29T13:55:01.626Z,21.76
2022-08-29T13:57:31.667Z,21.74
2022-08-29T14:00:02.445Z,21.71
2022-08-29T14:02:51.628Z,21.58
2022-08-29T14:05:20.599Z,21.42
2022-08-29T14:07:50.474Z,21.33
2022-08-29T14:10:19.222Z,21.29
2022-08-29T14:12:47.798Z,21.37
2022-08-29T14:15:18.563Z,21.46
2022-08-29T14:17:48.280Z,21.48
2022-08-29T14:20:19.117Z,21.49
2022-08-29T14:22:48.796Z,21.50
2022-08-29T14:25:19.761Z,21.49
2022-08-29T14:27:49.273Z,21.43
2022-08-29T14:30:21.074Z,21.37
2022-08-29T14:32:49.464Z,21.28
2022-08-29T14:35:26.842Z,21.19
2022-08-29T14:38:01.499Z,21.11
2022-08-29T14:40:32.891Z,21.14
2022-08-29T14:43:02.864Z,21.15
2022-08-29T14:45:32.148Z,21.05
2022-08-29T14:48:01.580Z,21.02
2022-08-29T14:50:29.997Z,20.98
2022-08-29T14:53:08.248Z,20.95
2022-08-29T14:55:37.890Z,20.93
2022-08-29T14:58:08.366Z,20.87
2022-08-29T15:00:36.868Z,20.76
2022-08-29T15:03:05.617Z,20.73
2022-08-29T15:05:34.648Z,20.71
2022-08-29T15:08:08.980Z,20.70
2022-08-29T15:10:40.113Z,20.73
2022-08-29T15:13:08.539Z,20.74
2022-08-29T15:15:36.977Z,20.71
2022-08-29T15:18:06.921Z,20.61
2022-08-29T15:20:37.256Z,20.53
2022-08-29T15:23:06.821Z,20.45
2022-08-29T15:25:35.812Z,20.39
2022-08-29T15:28:05.725Z,20.38
2022-08-29T15:30:52.673Z,20.34
2022-08-29T15:33:32.115Z,20.31
2022-08-29T15:36:01.681Z,20.29
2022-08-29T15:38:30.173Z,20.25
2022-08-29T15:40:58.582Z,20.22
2022-08-29T15:43:36.422Z,20.19
2022-08-29T15:46:06.432Z,20.21
2022-08-29T15:48:34.986Z,20.22
2022-08-29T15:51:04.351Z,20.18
2022-08-29T15:53:32.728Z,20.14
2022-08-29T15:56:01.758Z,20.10
2022-08-29T15:58:30.603Z,20.06
2022-08-29T16:00:59.339Z,20.00
2022-08-29T16:03:27.951Z,19.96
2022-08-29T16:05:57.493Z,19.93
2022-08-29T16:08:29.676Z,19.95
2022-08-29T16:11:06.056Z,19.98
2022-08-29T16:13:35.407Z,20.01
2022-08-29T16:16:03.770Z,20.08
2022-08-29T16:18:32.114Z,20.10
2022-08-29T16:21:00.604Z,20.09
2022-08-29T16:23:30.358Z,20.09
2022-08-29T16:25:58.795Z,20.08
2022-08-29T16:28:31.341Z,20.07
2022-08-29T16:31:00.123Z,19.99
2022-08-29T16:33:28.564Z,19.91
2022-08-29T16:35:59.139Z,19.85
2022-08-29T16:38:28.407Z,19.78
2022-08-29T16:40:56.785Z,19.73
2022-08-29T16:43:26.155Z,19.70
2022-08-29T16:45:54.674Z,19.68
2022-08-29T16:48:24.327Z,19.63
2022-08-29T16:50:54.247Z,19.57
2022-08-29T16:53:22.915Z,19.52
2022-08-29T16:55:51.220Z,19.47
2022-08-29T16:58:38.322Z,19.46
2022-08-29T17:01:07.541Z,19.45
2022-08-29T17:03:36.300Z,19.45
2022-08-29T17:06:05.827Z,19.44
2022-08-29T17:08:37.571Z,19.42
2022-08-29T17:11:06.588Z,19.40
2022-08-29T17:13:34.853Z,19.40
2022-08-29T17:16:06.784Z,19.36
2022-08-29T17:18:36.551Z,19.33
2022-08-29T17:21:06.394Z,19.29
2022-08-29T17:23:36.404Z,19.29
2022-08-29T17:26:08.627Z,19.27
2022-08-29T17:28:38.977Z,19.25
2022-08-29T17:31:09.102Z,19.17
2022-08-29T17:33:39.141Z,19.15
2022-08-29T17:36:08.903Z,19.12
2022-08-29T17:38:41.160Z,19.08
2022-08-29T17:41:14.932Z,19.05
2022-08-29T17:43:50.019Z,19.00
2022-08-29T17:46:21.794Z,18.98
2022-08-29T17:48:50.671Z,18.97
2022-08-29T17:51:21.578Z,18.89
2022-08-29T17:53:52.131Z,18.83
2022-08-29T17:56:38.168Z,18.78
2022-08-29T17:59:14.287Z,18.75
2022-08-29T18:01:43.190Z,18.69
2022-08-29T18:04:11.968Z,18.66
2022-08-29T18:06:40.803Z,18.64
2022-08-29T18:09:13.514Z,18.59
2022-08-29T18:11:46.555Z,18.56
2022-08-29T18:14:15.699Z,18.51
2022-08-29T18:16:44.300Z,18.48
2022-08-29T18:19:17.591Z,18.42
2022-08-29T18:21:56.095Z,18.40
2022-08-29T18:24:28.099Z,18.36
2022-08-29T18:27:02.486Z,18.33
2022-08-29T18:29:34.118Z,18.27
2022-08-29T18:32:05.063Z,18.22
2022-08-29T18:34:38.826Z,18.18
2022-08-29T18:37:08.451Z,18.16
2022-08-29T18:39:37.029Z,18.12
2022-08-29T18:42:24.758Z,18.10
2022-08-29T18:44:56.886Z,18.07
2022-08-29T18:47:28.339Z,18.04
2022-08-29T18:50:15.442Z,18.00
2022-08-29T18:52:46.998Z,17.97
2022-08-29T18:55:19.685Z,17.91
2022-08-29T18:57:49.128Z,17.88
2022-08-29T19:00:18.638Z,17.87
2022-08-29T19:02:47.485Z,17.86
2022-08-29T19:05:17.338Z,17.86
2022-08-29T19:07:45.744Z,17.85
2022-08-29T19:10:14.373Z,17.84
2022-08-29T19:12:44.219Z,17.82
2022-08-29T19:15:17.993Z,17.77
2022-08-29T19:17:46.620Z,17.76
2022-08-29T19:20:37.441Z,17.75
2022-08-29T19:23:10.148Z,17.71
2022-08-29T19:25:40.190Z,17.69
2022-08-29T19:28:10.858Z,17.68
2022-08-29T19:30:39.745Z,17.65
2022-08-29T19:33:09.957Z,17.63
2022-08-29T19:35:39.377Z,17.64
2022-08-29T19:38:08.582Z,17.63
2022-08-29T19:40:39.144Z,17.62
2022-08-29T19:43:13.681Z,17.62
2022-08-29T19:45:48.781Z,17.60
2022-08-29T19:48:26.399Z,17.57
2022-08-29T19:50:58.915Z,17.57
2022-08-29T19:53:27.546Z,17.54
2022-08-29T19:55:56.581Z,17.56
2022-08-29T19:58:31.705Z,17.54
2022-08-29T20:01:03.359Z,17.53
2022-08-29T20:03:35.476Z,17.50
2022-08-29T20:06:07.590Z,17.49
2022-08-29T20:08:39.920Z,17.48
2022-08-29T20:11:24.749Z,17.46
2022-08-29T20:14:03.514Z,17.44
2022-08-29T20:16:32.722Z,17.41
2022-08-29T20:19:04.840Z,17.40
2022-08-29T20:21:34.889Z,17.38
2022-08-29T20:24:05.363Z,17.37
2022-08-29T20:26:35.821Z,17.35
2022-08-29T20:29:17.365Z,17.33
2022-08-29T20:31:46.376Z,17.31
2022-08-29T20:34:15.772Z,17.31
2022-08-29T20:37:02.933Z,17.28
2022-08-29T20:39:32.479Z,17.25
2022-08-29T20:42:02.305Z,17.24
2022-08-29T20:44:34.162Z,17.22
2022-08-29T20:47:04.041Z,17.21
2022-08-29T20:49:33.835Z,17.20
2022-08-29T20:52:05.021Z,17.18
2022-08-29T20:54:35.314Z,17.18
2022-08-29T20:57:05.459Z,17.17
2022-08-29T20:59:36.132Z,17.14
2022-08-29T21:02:06.542Z,17.11
2022-08-29T21:04:53.400Z,17.11
2022-08-29T21:07:25.380Z,17.10
2022-08-29T21:09:55.809Z,17.08
2022-08-29T21:12:27.493Z,17.06
2022-08-29T21:14:56.094Z,17.04
2022-08-29T21:17:24.606Z,17.03
2022-08-29T21:19:53.238Z,17.02
2022-08-29T21:22:24.786Z,17.01
2022-08-29T21:24:55.643Z,17.01
2022-08-29T21:27:24.447Z,17.01
2022-08-29T21:29:55.939Z,17.01
2022-08-29T21:32:24.752Z,16.99
2022-08-29T21:34:53.101Z,16.98
2022-08-29T21:37:21.793Z,16.98
2022-08-29T21:39:50.197Z,16.98
2022-08-29T21:42:19.909Z,16.95
2022-08-29T21:44:48.585Z,16.97
2022-08-29T21:47:17.955Z,16.96
2022-08-29T21:49:48.471Z,16.97
2022-08-29T21:52:17.410Z,16.95
2022-08-29T21:54:46.259Z,16.96
2022-08-29T21:57:18.350Z,16.97
2022-08-29T21:59:47.655Z,16.98
2022-08-29T22:02:17.554Z,16.96
2022-08-29T22:04:46.073Z,16.95
2022-08-29T22:07:14.461Z,16.95
2022-08-29T22:09:43.644Z,16.96
2022-08-29T22:12:11.978Z,16.95
2022-08-29T22:15:06.604Z,16.94
2022-08-29T22:17:35.113Z,16.93
2022-08-29T22:20:04.977Z,16.94
2022-08-29T22:22:33.497Z,16.93
2022-08-29T22:25:02.519Z,16.91
2022-08-29T22:27:31.981Z,16.91
2022-08-29T22:30:00.521Z,16.89
2022-08-29T22:32:32.309Z,16.87
2022-08-29T22:35:12.398Z,16.88
2022-08-29T22:37:41.518Z,16.88
2022-08-29T22:40:13.877Z,16.87
2022-08-29T22:42:43.325Z,16.86
2022-08-29T22:45:13.984Z,16.87
2022-08-29T22:47:43.142Z,16.86
2022-08-29T22:50:16.375Z,16.87
2022-08-29T22:52:46.097Z,16.84
2022-08-29T22:55:17.710Z,16.85
2022-08-29T22:57:46.760Z,16.84
2022-08-29T23:00:19.397Z,16.82
2022-08-29T23:02:48.861Z,16.80
2022-08-29T23:05:18.027Z,16.78
2022-08-29T23:07:46.949Z,16.77
2022-08-29T23:10:15.738Z,16.77
2022-08-29T23:12:44.234Z,16.75
2022-08-29T23:15:15.362Z,16.74
2022-08-29T23:17:44.849Z,16.70
2022-08-29T23:20:15.026Z,16.69
2022-08-29T23:22:43.973Z,16.67
2022-08-29T23:25:13.477Z,16.64
2022-08-29T23:27:44.782Z,16.64
2022-08-29T23:30:14.607Z,16.63
2022-08-29T23:32:42.945Z,16.59
2022-08-29T23:35:12.542Z,16.57
2022-08-29T23:37:41.068Z,16.56
2022-08-29T23:40:09.896Z,16.55
2022-08-29T23:42:42.379Z,16.56
2022-08-29T23:45:12.191Z,16.59
2022-08-29T23:47:41.253Z,16.62
2022-08-29T23:50:10.123Z,16.65
2022-08-29T23:52:38.600Z,16.67
2022-08-29T23:55:10.110Z,16.69
2022-08-29T23:57:43.328Z,16.69
